ESNN/SDL METAR and TAF weather

Enter ICAO airport designator
Station Type Date Time Source
ESNN METAR 2022/06/28 08:20 UTC NOAA

ESNN 280820Z 19006KT CAVOK 24/18 Q1019


Station Type Date Time Source
ESNN Decoded METAR 2022/06/28 08:20 UTC NOAA

Sundsvall-Harnosand Flygplats, Sweden (ESNN) 62-32N 017-27E 10M
Jun 28, 2022 - 04:20 AM EDT / 2022.06.28 0820 UTC
Wind: from the S (190 degrees) at 7 MPH (6 KT):0
Visibility: greater than 7 mile(s):0
Temperature: 75 F (24 C)
Dew Point: 64 F (18 C)
Relative Humidity: 69%
Pressure (altimeter): 30.09 in. Hg (1019 hPa)
ob: ESNN 280820Z 19006KT CAVOK 24/18 Q1019
cycle: 8

Station Type Date Time Source
ESNN TAF 2016/05/29 09:33 UTC NOAA

TAF TAF ESNN 290830Z 2909/3018 07006KT 9999 SCT045
BECMG 2913/2915 14010KT

Example: see airport list